Back to Top

Language: 

My Weather Underground Personal Weather Station Historical Data with Graphs...

Delerius Weather Station Historical Data
Daily Summary for August 25, 2017 Units:  English    Metric   Both
« Previous Day
Next Day »
Daily Weekly Monthly Yearly Custom
  High: Low: Average:
Temperature: 71.2 °F 51.4 °F 61.8 °F
Dew Point: 57.8 °F 48.9 °F 54.3 °F
Humidity: 94 % 58 % 77 %
Wind Speed: 9.0 mph 0.0 mph 2.2 mph
Wind Gust: 15.0 mph - -
Wind:- - SW
Pressure: 30.02 in 29.98 in -
Precipitation: 0.00 in    
Historical Graphs
 
 
Tabular Data for August 25, 2017
Time Temperature Dew Point Pressure Wind Wind Speed Wind Gust Humidity Rainfall Rate (Hourly) solar Conditions
00:02 55.9 °F 51.5 °F 30.00 in WNW 3.0 mph 7.0 mph 85 % 0.00 in 0 W/m2
00:07 55.8 °F 51.3 °F 30.00 in WNW 1.0 mph 6.0 mph 85 % 0.00 in 0 W/m2
00:12 55.8 °F 51.3 °F 30.00 in Calm   2.0 mph 85 % 0.00 in 0 W/m2
00:17 55.6 °F 51.1 °F 30.00 in Calm   3.0 mph 85 % 0.00 in 0 W/m2
00:22 55.4 °F 51.0 °F 30.00 in WNW 1.0 mph 4.0 mph 85 % 0.00 in 0 W/m2
00:27 55.2 °F 51.1 °F 30.00 in WNW 1.0 mph 5.0 mph 86 % 0.00 in 0 W/m2
00:32 55.2 °F 51.1 °F 30.00 in Calm   5.0 mph 86 % 0.00 in 0 W/m2
00:37 55.0 °F 50.9 °F 30.00 in Calm   2.0 mph 86 % 0.00 in 0 W/m2
00:42 55.0 °F 50.9 °F 30.00 in North 2.0 mph 5.0 mph 86 % 0.00 in 0 W/m2
00:47 55.0 °F 50.9 °F 30.00 in North 1.0 mph 5.0 mph 86 % 0.00 in 0 W/m2
00:52 54.9 °F 51.1 °F 30.00 in Calm   5.0 mph 87 % 0.00 in 0 W/m2
00:58 54.9 °F 51.1 °F 30.00 in North 2.0 mph 8.0 mph 87 % 0.00 in 0 W/m2
01:03 54.9 °F 51.1 °F 30.00 in NNW 2.0 mph 8.0 mph 87 % 0.00 in 0 W/m2
01:08 54.7 °F 50.6 °F 30.00 in NW 1.0 mph 5.0 mph 86 % 0.00 in 0 W/m2
01:13 54.3 °F 50.5 °F 30.00 in Calm   1.0 mph 87 % 0.00 in 0 W/m2
01:18 54.1 °F 50.7 °F 30.00 in Calm   3.0 mph 88 % 0.00 in 0 W/m2
01:23 54.0 °F 50.5 °F 30.00 in Calm   3.0 mph 88 % 0.00 in 0 W/m2
01:28 54.0 °F 50.5 °F 29.99 in Calm   2.0 mph 88 % 0.00 in 0 W/m2
01:33 54.0 °F 50.8 °F 29.99 in Calm   2.0 mph 89 % 0.00 in 0 W/m2
01:38 53.8 °F 50.6 °F 29.99 in Calm   3.0 mph 89 % 0.00 in 0 W/m2
01:43 53.8 °F 50.6 °F 29.99 in SSE 1.0 mph 4.0 mph 89 % 0.00 in 0 W/m2
01:48 53.8 °F 50.6 °F 29.99 in SSE 1.0 mph 4.0 mph 89 % 0.00 in 0 W/m2
01:53 54.0 °F 50.8 °F 29.99 in SE 1.0 mph 4.0 mph 89 % 0.00 in 0 W/m2
01:58 54.1 °F 51.0 °F 29.99 in Calm   4.0 mph 89 % 0.00 in 0 W/m2
02:03 54.3 °F 51.1 °F 30.00 in ESE 1.0 mph 4.0 mph 89 % 0.00 in 0 W/m2
02:08 54.7 °F 51.2 °F 30.00 in ESE 1.0 mph 5.0 mph 88 % 0.00 in 0 W/m2
02:13 54.7 °F 50.9 °F 30.00 in ESE 1.0 mph 5.0 mph 87 % 0.00 in 0 W/m2
02:18 54.7 °F 50.9 °F 29.99 in Calm   4.0 mph 87 % 0.00 in 0 W/m2
02:23 54.7 °F 50.9 °F 29.99 in Calm   1.0 mph 87 % 0.00 in 0 W/m2
02:28 54.7 °F 50.9 °F 29.99 in Calm   1.0 mph 87 % 0.00 in 0 W/m2
02:33 54.5 °F 50.7 °F 29.99 in Calm   1.0 mph 87 % 0.00 in 0 W/m2
02:38 54.3 °F 50.5 °F 29.99 in Calm     87 % 0.00 in 0 W/m2
02:43 54.1 °F 50.4 °F 29.99 in SSW 1.0 mph 4.0 mph 87 % 0.00 in 0 W/m2
02:44 54.1 °F 50.7 °F 29.99 in SSW 1.0 mph 5.0 mph 88 % 0.00 in 0 W/m2
02:49 54.3 °F 50.8 °F 29.99 in SSW 1.0 mph 5.0 mph 88 % 0.00 in 0 W/m2
02:54 54.1 °F 50.7 °F 29.99 in Calm   2.0 mph 88 % 0.00 in 0 W/m2
02:59 54.1 °F 50.7 °F 29.99 in Calm   4.0 mph 88 % 0.00 in 0 W/m2
03:04 54.0 °F 50.5 °F 29.99 in Calm   4.0 mph 88 % 0.00 in 0 W/m2
03:09 54.0 °F 50.5 °F 29.99 in Calm   2.0 mph 88 % 0.00 in 0 W/m2
03:14 54.0 °F 50.5 °F 29.98 in Calm   2.0 mph 88 % 0.00 in 0 W/m2
03:19 53.8 °F 50.3 °F 29.99 in Calm     88 % 0.00 in 0 W/m2
03:24 53.8 °F 50.3 °F 29.99 in Calm   1.0 mph 88 % 0.00 in 0 W/m2
03:29 53.4 °F 50.3 °F 29.99 in Calm   1.0 mph 89 % 0.00 in 0 W/m2
03:34 53.2 °F 50.1 °F 29.99 in Calm   1.0 mph 89 % 0.00 in 0 W/m2
03:39 53.2 °F 50.1 °F 29.99 in Calm   2.0 mph 89 % 0.00 in 0 W/m2
03:44 53.1 °F 50.2 °F 29.99 in SSE 1.0 mph 6.0 mph 90 % 0.00 in 0 W/m2
03:49 53.1 °F 50.2 °F 29.99 in East 1.0 mph 6.0 mph 90 % 0.00 in 0 W/m2
03:54 53.1 °F 50.2 °F 29.99 in East 2.0 mph 6.0 mph 90 % 0.00 in 0 W/m2
03:59 53.1 °F 50.2 °F 29.99 in East 1.0 mph 4.0 mph 90 % 0.00 in 0 W/m2
04:04 53.1 °F 50.2 °F 29.99 in East 1.0 mph 4.0 mph 90 % 0.00 in 0 W/m2
04:09 53.2 °F 50.4 °F 29.99 in Calm   3.0 mph 90 % 0.00 in 0 W/m2
04:14 53.2 °F 50.4 °F 29.99 in ENE 1.0 mph 5.0 mph 90 % 0.00 in 0 W/m2
04:19 53.2 °F 50.4 °F 29.99 in ENE 1.0 mph 5.0 mph 90 % 0.00 in 0 W/m2
04:25 53.1 °F 50.2 °F 29.99 in ENE 1.0 mph 3.0 mph 90 % 0.00 in 0 W/m2
04:30 53.1 °F 50.2 °F 29.99 in ENE 1.0 mph 4.0 mph 90 % 0.00 in 0 W/m2
04:35 52.9 °F 50.0 °F 29.99 in ENE 1.0 mph 4.0 mph 90 % 0.00 in 0 W/m2
04:40 52.9 °F 50.0 °F 29.99 in ENE 1.0 mph 3.0 mph 90 % 0.00 in 0 W/m2
04:45 53.1 °F 50.2 °F 29.99 in ENE 1.0 mph 3.0 mph 90 % 0.00 in 0 W/m2
04:50 53.1 °F 50.2 °F 29.99 in Calm   3.0 mph 90 % 0.00 in 0 W/m2
04:55 53.1 °F 50.5 °F 29.99 in ENE 2.0 mph 6.0 mph 91 % 0.00 in 0 W/m2
05:00 53.2 °F 50.4 °F 29.99 in ENE 2.0 mph 6.0 mph 90 % 0.00 in 0 W/m2
05:05 53.1 °F 50.2 °F 29.99 in Calm   4.0 mph 90 % 0.00 in 0 W/m2
05:10 53.1 °F 50.2 °F 29.99 in Calm   2.0 mph 90 % 0.00 in 0 W/m2
05:15 52.9 °F 50.0 °F 29.99 in Calm   2.0 mph 90 % 0.00 in 0 W/m2
05:20 52.9 °F 50.0 °F 29.99 in Calm   2.0 mph 90 % 0.00 in 0 W/m2
05:25 52.7 °F 49.8 °F 29.99 in Calm     90 % 0.00 in 0 W/m2
05:30 52.5 °F 49.7 °F 30.00 in Calm     90 % 0.00 in 0 W/m2
05:35 52.3 °F 49.8 °F 30.00 in Calm   2.0 mph 91 % 0.00 in 0 W/m2
05:40 52.3 °F 49.8 °F 29.99 in Calm   2.0 mph 91 % 0.00 in 0 W/m2
05:45 52.2 °F 49.6 °F 29.99 in Calm   1.0 mph 91 % 0.00 in 0 W/m2
05:50 52.2 °F 49.6 °F 29.99 in Calm   1.0 mph 91 % 0.00 in 0 W/m2
05:55 52.2 °F 49.6 °F 29.99 in North 1.0 mph 4.0 mph 91 % 0.00 in 0 W/m2
05:56 52.2 °F 49.9 °F 29.99 in North 1.0 mph 4.0 mph 92 % 0.00 in 0 W/m2
06:01 52.2 °F 49.9 °F 29.99 in NW 2.0 mph 5.0 mph 92 % 0.00 in 0 W/m2
06:06 52.3 °F 50.1 °F 29.99 in WNW 2.0 mph 5.0 mph 92 % 0.00 in 0 W/m2
06:11 52.0 °F 49.4 °F 30.00 in WNW 1.0 mph 5.0 mph 91 % 0.00 in 0 W/m2
06:16 51.6 °F 49.1 °F 30.00 in Calm   4.0 mph 91 % 0.00 in 5 W/m2
06:21 51.4 °F 48.9 °F 30.00 in Calm     91 % 0.00 in 5 W/m2
06:26 51.4 °F 49.2 °F 30.00 in Calm     92 % 0.00 in 7 W/m2
06:31 51.4 °F 49.2 °F 30.00 in Calm     92 % 0.00 in 9 W/m2
06:36 51.4 °F 49.2 °F 30.00 in Calm     92 % 0.00 in 11 W/m2
06:41 51.4 °F 49.5 °F 30.00 in Calm     93 % 0.00 in 14 W/m2
06:46 51.4 °F 49.5 °F 30.00 in Calm   1.0 mph 93 % 0.00 in 19 W/m2
06:51 51.4 °F 49.5 °F 30.00 in Calm   1.0 mph 93 % 0.00 in 25 W/m2
06:56 51.4 °F 49.5 °F 30.00 in Calm   1.0 mph 93 % 0.00 in 35 W/m2
07:01 51.8 °F 50.1 °F 30.00 in Calm     94 % 0.00 in 42 W/m2
07:06 52.0 °F 50.3 °F 30.00 in Calm     94 % 0.00 in 62 W/m2
07:11 52.3 °F 50.7 °F 30.00 in Calm     94 % 0.00 in 56 W/m2
07:16 52.7 °F 51.0 °F 30.01 in Calm     94 % 0.00 in 63 W/m2
07:21 53.1 °F 51.4 °F 30.01 in Calm     94 % 0.00 in 60 W/m2
07:26 53.4 °F 51.4 °F 30.01 in NNW 1.0 mph 4.0 mph 93 % 0.00 in 135 W/m2
07:31 53.8 °F 51.8 °F 30.00 in NE 1.0 mph 4.0 mph 93 % 0.00 in 109 W/m2
07:36 54.3 °F 52.3 °F 30.01 in East 1.0 mph 4.0 mph 93 % 0.00 in 118 W/m2
07:41 55.0 °F 52.8 °F 30.01 in East 1.0 mph 4.0 mph 92 % 0.00 in 158 W/m2
07:46 55.6 °F 53.0 °F 30.01 in Calm   3.0 mph 91 % 0.00 in 163 W/m2
07:51 56.1 °F 53.2 °F 30.01 in Calm   2.0 mph 90 % 0.00 in 188 W/m2
07:53 56.5 °F 53.6 °F 30.01 in Calm   2.0 mph 90 % 0.00 in 188 W/m2
07:58 57.2 °F 54.0 °F 30.01 in Calm   2.0 mph 89 % 0.00 in 229 W/m2
07:59 57.4 °F 53.9 °F 30.01 in Calm   2.0 mph 88 % 0.00 in 227 W/m2
08:04 58.1 °F 53.9 °F 30.01 in Calm   2.0 mph 86 % 0.00 in 262 W/m2
08:09 58.8 °F 54.3 °F 30.01 in Calm   2.0 mph 85 % 0.00 in 269 W/m2
08:14 59.5 °F 54.7 °F 30.01 in Calm   1.0 mph 84 % 0.00 in 250 W/m2
08:20 60.3 °F 54.7 °F 30.01 in Calm   1.0 mph 82 % 0.00 in 292 W/m2
08:25 61.0 °F 55.1 °F 30.01 in Calm   1.0 mph 81 % 0.00 in 316 W/m2
08:30 61.2 °F 54.9 °F 30.01 in Calm   1.0 mph 80 % 0.00 in 287 W/m2
08:35 61.9 °F 55.3 °F 30.01 in Calm     79 % 0.00 in 346 W/m2
08:40 62.8 °F 55.8 °F 30.01 in Calm     78 % 0.00 in 329 W/m2
08:45 63.5 °F 56.2 °F 30.01 in Calm   3.0 mph 77 % 0.00 in 390 W/m2
08:50 63.9 °F 55.8 °F 30.01 in Calm   3.0 mph 75 % 0.00 in 439 W/m2
08:55 63.7 °F 55.6 °F 30.01 in Calm   2.0 mph 75 % 0.00 in 490 W/m2
09:00 64.0 °F 56.0 °F 30.01 in Calm   1.0 mph 75 % 0.00 in 192 W/m2
09:05 64.2 °F 56.1 °F 30.01 in Calm   1.0 mph 75 % 0.00 in 214 W/m2
09:10 64.2 °F 55.8 °F 30.01 in Calm   1.0 mph 74 % 0.00 in 207 W/m2
09:15 64.2 °F 55.8 °F 30.01 in Calm   2.0 mph 74 % 0.00 in 190 W/m2
09:20 64.0 °F 56.3 °F 30.01 in Calm   2.0 mph 76 % 0.00 in 211 W/m2
09:25 64.0 °F 56.3 °F 30.01 in Calm     76 % 0.00 in 204 W/m2
09:30 64.0 °F 56.3 °F 30.01 in WNW 1.0 mph 9.0 mph 76 % 0.00 in 239 W/m2
09:35 64.2 °F 55.8 °F 30.01 in WNW 3.0 mph 9.0 mph 74 % 0.00 in 617 W/m2
09:40 64.8 °F 55.5 °F 30.01 in NW 5.0 mph 10.0 mph 72 % 0.00 in 366 W/m2
09:45 65.1 °F 56.2 °F 30.01 in NW 5.0 mph 10.0 mph 73 % 0.00 in 285 W/m2
09:50 65.5 °F 56.2 °F 30.01 in WNW 4.0 mph 8.0 mph 72 % 0.00 in 311 W/m2
09:55 65.8 °F 56.2 °F 30.02 in WNW 3.0 mph 8.0 mph 71 % 0.00 in 274 W/m2
10:00 66.0 °F 56.0 °F 30.01 in NW 2.0 mph 6.0 mph 70 % 0.00 in 278 W/m2
10:05 66.2 °F 55.7 °F 30.01 in NW 1.0 mph 5.0 mph 69 % 0.00 in 338 W/m2
10:10 66.4 °F 55.9 °F 30.01 in NNW 1.0 mph 4.0 mph 69 % 0.00 in 281 W/m2
10:15 66.0 °F 56.0 °F 30.01 in ENE 1.0 mph 5.0 mph 70 % 0.00 in 311 W/m2
10:20 66.0 °F 56.7 °F 30.01 in East 2.0 mph 6.0 mph 72 % 0.00 in 272 W/m2
10:25 65.8 °F 56.6 °F 30.01 in ESE 3.0 mph 6.0 mph 72 % 0.00 in 248 W/m2
10:30 65.8 °F 56.6 °F 30.01 in ESE 2.0 mph 6.0 mph 72 % 0.00 in 183 W/m2
10:35 65.7 °F 56.0 °F 30.01 in ESE 2.0 mph 5.0 mph 71 % 0.00 in 195 W/m2
10:40 65.3 °F 56.0 °F 30.01 in SE 3.0 mph 6.0 mph 72 % 0.00 in 190 W/m2
10:45 64.9 °F 56.1 °F 30.01 in SE 3.0 mph 6.0 mph 73 % 0.00 in 218 W/m2
10:50 64.9 °F 56.5 °F 30.01 in SSE 2.0 mph 5.0 mph 74 % 0.00 in 258 W/m2
10:55 65.1 °F 56.6 °F 30.01 in SSE 2.0 mph 5.0 mph 74 % 0.00 in 503 W/m2
11:00 65.7 °F 57.1 °F 30.01 in SSE 2.0 mph 6.0 mph 74 % 0.00 in 357 W/m2
11:06 65.8 °F 56.9 °F 30.01 in SSE 2.0 mph 6.0 mph 73 % 0.00 in 304 W/m2
11:10 65.8 °F 56.9 °F 30.01 in SSE 3.0 mph 6.0 mph 73 % 0.00 in 387 W/m2
11:15 65.8 °F 56.9 °F 30.00 in SE 3.0 mph 8.0 mph 73 % 0.00 in 575 W/m2
11:20 66.0 °F 57.1 °F 30.00 in SE 3.0 mph 8.0 mph 73 % 0.00 in 541 W/m2
11:26 66.7 °F 57.8 °F 30.00 in ESE 2.0 mph 6.0 mph 73 % 0.00 in 550 W/m2
11:31 67.3 °F 57.2 °F 30.00 in ESE 3.0 mph 8.0 mph 70 % 0.00 in 939 W/m2
11:36 67.6 °F 57.5 °F 30.00 in SE 4.0 mph 8.0 mph 70 % 0.00 in 768 W/m2
11:41 67.8 °F 57.3 °F 30.00 in SE 4.0 mph 9.0 mph 69 % 0.00 in 733 W/m2
11:46 68.0 °F 56.6 °F 29.99 in SSE 4.0 mph 10.0 mph 67 % 0.00 in 580 W/m2
11:51 68.2 °F 56.8 °F 29.99 in South 5.0 mph 10.0 mph 67 % 0.00 in 531 W/m2
11:56 68.2 °F 56.4 °F 30.00 in SSW 6.0 mph 11.0 mph 66 % 0.00 in 733 W/m2
12:01 68.2 °F 56.4 °F 30.00 in SSW 6.0 mph 11.0 mph 66 % 0.00 in 726 W/m2
12:06 68.2 °F 56.4 °F 30.00 in SSW 7.0 mph 12.0 mph 66 % 0.00 in 766 W/m2
12:11 68.4 °F 56.6 °F 30.00 in SSW 8.0 mph 12.0 mph 66 % 0.00 in 830 W/m2
12:16 68.7 °F 56.9 °F 30.00 in SW 6.0 mph 11.0 mph 66 % 0.00 in 673 W/m2
12:21 68.7 °F 55.6 °F 30.00 in SSW 7.0 mph 11.0 mph 63 % 0.00 in 480 W/m2
12:26 68.4 °F 56.1 °F 30.00 in South 6.0 mph 11.0 mph 65 % 0.00 in 364 W/m2
12:31 68.0 °F 56.2 °F 29.99 in SSW 6.0 mph 12.0 mph 66 % 0.00 in 346 W/m2
12:36 67.8 °F 56.0 °F 30.00 in SSW 7.0 mph 12.0 mph 66 % 0.00 in 418 W/m2
12:41 67.6 °F 56.3 °F 30.00 in SW 7.0 mph 10.0 mph 67 % 0.00 in 564 W/m2
12:46 67.8 °F 56.9 °F 29.99 in SSW 7.0 mph 11.0 mph 68 % 0.00 in 468 W/m2
12:51 68.0 °F 57.0 °F 29.99 in SSW 5.0 mph 11.0 mph 68 % 0.00 in 446 W/m2
12:56 68.0 °F 56.2 °F 29.99 in SSW 6.0 mph 11.0 mph 66 % 0.00 in 371 W/m2
13:01 67.8 °F 56.5 °F 29.99 in SSW 6.0 mph 11.0 mph 67 % 0.00 in 373 W/m2
13:06 67.8 °F 56.5 °F 29.99 in SSW 5.0 mph 11.0 mph 67 % 0.00 in 367 W/m2
13:11 68.0 °F 56.6 °F 29.99 in SSW 6.0 mph 11.0 mph 67 % 0.00 in 339 W/m2
13:16 67.8 °F 56.5 °F 29.99 in SW 7.0 mph 10.0 mph 67 % 0.00 in 309 W/m2
13:21 67.6 °F 56.3 °F 29.99 in SW 8.0 mph 12.0 mph 67 % 0.00 in 255 W/m2
13:26 67.8 °F 56.5 °F 29.99 in SW 7.0 mph 12.0 mph 67 % 0.00 in 264 W/m2
13:31 68.0 °F 56.2 °F 29.99 in WSW 6.0 mph 11.0 mph 66 % 0.00 in 255 W/m2
13:36 68.2 °F 56.4 °F 29.99 in West 7.0 mph 11.0 mph 66 % 0.00 in 346 W/m2
13:41 68.4 °F 56.1 °F 29.99 in West 7.0 mph 14.0 mph 65 % 0.00 in 387 W/m2
13:46 68.5 °F 55.9 °F 30.00 in West 8.0 mph 14.0 mph 64 % 0.00 in 387 W/m2
13:51 68.5 °F 55.4 °F 30.00 in West 8.0 mph 14.0 mph 63 % 0.00 in 399 W/m2
13:56 68.4 °F 55.7 °F 30.00 in West 8.0 mph 13.0 mph 64 % 0.00 in 478 W/m2
14:01 68.7 °F 55.6 °F 30.00 in West 8.0 mph 14.0 mph 63 % 0.00 in 501 W/m2
14:06 68.7 °F 55.2 °F 30.00 in West 9.0 mph 15.0 mph 62 % 0.00 in 476 W/m2
14:11 68.7 °F 55.6 °F 30.00 in West 9.0 mph 15.0 mph 63 % 0.00 in 373 W/m2
14:16 68.5 °F 55.4 °F 30.00 in West 7.0 mph 12.0 mph 63 % 0.00 in 552 W/m2
14:21 68.7 °F 54.7 °F 30.00 in West 7.0 mph 12.0 mph 61 % 0.00 in 403 W/m2
14:26 68.9 °F 54.9 °F 30.00 in West 7.0 mph 12.0 mph 61 % 0.00 in 550 W/m2
14:31 69.3 °F 55.7 °F 30.00 in WSW 6.0 mph 10.0 mph 62 % 0.00 in 482 W/m2
14:36 69.4 °F 55.4 °F 30.00 in WSW 6.0 mph 10.0 mph 61 % 0.00 in 568 W/m2
14:41 70.0 °F 55.5 °F 29.99 in West 6.0 mph 12.0 mph 60 % 0.00 in 388 W/m2
14:46 69.8 °F 55.3 °F 29.99 in West 8.0 mph 12.0 mph 60 % 0.00 in 538 W/m2
14:51 70.0 °F 55.5 °F 29.99 in WSW 7.0 mph 12.0 mph 60 % 0.00 in 580 W/m2
14:56 70.0 °F 55.0 °F 29.99 in West 6.0 mph 10.0 mph 59 % 0.00 in 577 W/m2
15:01 70.2 °F 55.6 °F 29.99 in WSW 6.0 mph 10.0 mph 60 % 0.00 in 684 W/m2
15:06 70.2 °F 55.6 °F 29.99 in WSW 6.0 mph 11.0 mph 60 % 0.00 in 524 W/m2
15:11 70.0 °F 56.4 °F 29.99 in WSW 6.0 mph 11.0 mph 62 % 0.00 in 357 W/m2
15:16 70.2 °F 56.1 °F 29.99 in West 6.0 mph 10.0 mph 61 % 0.00 in 432 W/m2
15:21 70.7 °F 56.1 °F 29.99 in West 7.0 mph 12.0 mph 60 % 0.00 in 631 W/m2
15:26 70.7 °F 55.7 °F 29.99 in WSW 8.0 mph 13.0 mph 59 % 0.00 in 633 W/m2
15:31 70.3 °F 55.8 °F 29.99 in WSW 7.0 mph 13.0 mph 60 % 0.00 in 629 W/m2
15:36 70.3 °F 55.3 °F 29.99 in WSW 5.0 mph 12.0 mph 59 % 0.00 in 506 W/m2
15:38 70.3 °F 55.8 °F 29.99 in SW 5.0 mph 10.0 mph 60 % 0.00 in 520 W/m2
15:41 70.3 °F 56.2 °F 29.99 in SW 5.0 mph 10.0 mph 61 % 0.00 in 489 W/m2
15:46 70.2 °F 55.2 °F 29.99 in SW 6.0 mph 12.0 mph 59 % 0.00 in 531 W/m2
15:51 69.6 °F 54.7 °F 29.98 in SW 7.0 mph 12.0 mph 59 % 0.00 in 489 W/m2
15:56 69.6 °F 55.1 °F 29.98 in SW 7.0 mph 12.0 mph 60 % 0.00 in 524 W/m2
16:01 70.2 °F 56.5 °F 29.98 in WSW 5.0 mph 11.0 mph 62 % 0.00 in 594 W/m2
16:10 70.7 °F 55.7 °F 29.98 in WNW 6.0 mph 8.0 mph 59 % 0.00 in 575 W/m2
16:15 71.2 °F 56.2 °F 29.99 in West 6.0 mph 9.0 mph 59 % 0.00 in 248 W/m2
16:19 71.1 °F 55.5 °F 29.99 in WSW 6.0 mph 11.0 mph 58 % 0.00 in 260 W/m2
16:24 70.5 °F 55.5 °F 29.99 in SW 6.0 mph 11.0 mph 59 % 0.00 in 364 W/m2
16:29 70.3 °F 55.8 °F 29.99 in SW 5.0 mph 9.0 mph 60 % 0.00 in 229 W/m2
16:35 70.3 °F 55.8 °F 29.98 in WSW 4.0 mph 9.0 mph 60 % 0.00 in 200 W/m2
16:40 70.0 °F 55.9 °F 29.98 in WSW 5.0 mph 8.0 mph 61 % 0.00 in 172 W/m2
16:45 69.6 °F 55.6 °F 29.98 in SW 4.0 mph 8.0 mph 61 % 0.00 in 190 W/m2
16:50 69.6 °F 55.6 °F 29.99 in WSW 4.0 mph 7.0 mph 61 % 0.00 in 130 W/m2
16:55 69.4 °F 55.9 °F 29.99 in WSW 4.0 mph 7.0 mph 62 % 0.00 in 178 W/m2
17:00 69.4 °F 56.3 °F 29.99 in WSW 4.0 mph 7.0 mph 63 % 0.00 in 204 W/m2
17:05 69.3 °F 55.7 °F 29.98 in SW 4.0 mph 7.0 mph 62 % 0.00 in 174 W/m2
17:10 69.3 °F 56.1 °F 29.98 in SW 2.0 mph 6.0 mph 63 % 0.00 in 176 W/m2
17:15 69.3 °F 56.1 °F 29.98 in West 3.0 mph 7.0 mph 63 % 0.00 in 163 W/m2
17:20 69.3 °F 56.1 °F 29.98 in West 4.0 mph 7.0 mph 63 % 0.00 in 148 W/m2
17:25 69.3 °F 56.1 °F 29.98 in West 4.0 mph 9.0 mph 63 % 0.00 in 134 W/m2
17:30 69.1 °F 55.5 °F 29.98 in West 6.0 mph 9.0 mph 62 % 0.00 in 114 W/m2
17:35 68.9 °F 55.8 °F 29.98 in West 6.0 mph 9.0 mph 63 % 0.00 in 113 W/m2
17:40 68.7 °F 56.0 °F 29.99 in West 6.0 mph 9.0 mph 64 % 0.00 in 113 W/m2
17:45 68.5 °F 55.9 °F 29.99 in West 5.0 mph 9.0 mph 64 % 0.00 in 111 W/m2
17:50 68.5 °F 55.9 °F 29.99 in West 6.0 mph 9.0 mph 64 % 0.00 in 118 W/m2
17:55 68.4 °F 56.1 °F 29.99 in West 6.0 mph 9.0 mph 65 % 0.00 in 121 W/m2
18:00 68.4 °F 56.6 °F 29.99 in WNW 5.0 mph 8.0 mph 66 % 0.00 in 111 W/m2
18:05 68.4 °F 56.6 °F 29.99 in West 4.0 mph 8.0 mph 66 % 0.00 in 114 W/m2
18:10 68.2 °F 56.0 °F 29.99 in West 5.0 mph 10.0 mph 65 % 0.00 in 90 W/m2
18:15 68.2 °F 56.4 °F 29.99 in WNW 6.0 mph 10.0 mph 66 % 0.00 in 81 W/m2
18:20 68.0 °F 56.2 °F 29.98 in West 5.0 mph 9.0 mph 66 % 0.00 in 67 W/m2
18:25 67.8 °F 56.5 °F 29.98 in West 3.0 mph 8.0 mph 67 % 0.00 in 56 W/m2
18:30 67.8 °F 56.5 °F 29.98 in WNW 3.0 mph 6.0 mph 67 % 0.00 in 63 W/m2
18:35 67.6 °F 56.3 °F 29.98 in NW 3.0 mph 6.0 mph 67 % 0.00 in 72 W/m2
18:40 67.6 °F 56.7 °F 29.98 in NW 3.0 mph 6.0 mph 68 % 0.00 in 69 W/m2
18:45 67.6 °F 56.7 °F 29.98 in NW 2.0 mph 5.0 mph 68 % 0.00 in 49 W/m2
18:50 67.5 °F 56.9 °F 29.98 in NW 1.0 mph 4.0 mph 69 % 0.00 in 40 W/m2
18:55 67.3 °F 57.2 °F 29.98 in Calm   2.0 mph 70 % 0.00 in 42 W/m2
19:00 67.1 °F 57.0 °F 29.99 in NW 1.0 mph 4.0 mph 70 % 0.00 in 40 W/m2
19:05 66.9 °F 56.4 °F 29.99 in NW 1.0 mph 4.0 mph 69 % 0.00 in 46 W/m2
19:10 66.9 °F 56.8 °F 29.99 in NW 1.0 mph 3.0 mph 70 % 0.00 in 51 W/m2
19:15 66.9 °F 56.8 °F 29.99 in NW 1.0 mph 3.0 mph 70 % 0.00 in 51 W/m2
19:20 66.7 °F 56.6 °F 29.99 in NW 1.0 mph 3.0 mph 70 % 0.00 in 37 W/m2
19:25 66.7 °F 56.6 °F 29.99 in NW 1.0 mph 3.0 mph 70 % 0.00 in 28 W/m2
19:30 66.6 °F 56.5 °F 29.99 in NW 2.0 mph 5.0 mph 70 % 0.00 in 21 W/m2
19:35 66.6 °F 56.9 °F 29.99 in NW 1.0 mph 5.0 mph 71 % 0.00 in 18 W/m2
19:40 66.6 °F 56.9 °F 29.99 in Calm   2.0 mph 71 % 0.00 in 16 W/m2
19:45 66.4 °F 57.1 °F 29.99 in Calm   1.0 mph 72 % 0.00 in 12 W/m2
19:50 66.4 °F 57.1 °F 29.99 in Calm   1.0 mph 72 % 0.00 in 11 W/m2
19:55 66.0 °F 57.1 °F 29.99 in Calm   1.0 mph 73 % 0.00 in 12 W/m2
20:00 65.8 °F 57.3 °F 29.99 in Calm     74 % 0.00 in 9 W/m2
20:05 65.7 °F 57.5 °F 29.99 in Calm     75 % 0.00 in 7 W/m2
20:10 65.5 °F 57.7 °F 30.00 in Calm     76 % 0.00 in 5 W/m2
20:15 65.3 °F 57.5 °F 30.00 in Calm     76 % 0.00 in 0 W/m2
20:20 64.9 °F 57.2 °F 29.99 in Calm     76 % 0.00 in 0 W/m2
20:25 64.8 °F 57.0 °F 29.99 in Calm     76 % 0.00 in 0 W/m2
20:30 64.6 °F 57.6 °F 30.00 in Calm     78 % 0.00 in 0 W/m2
20:35 64.2 °F 57.6 °F 30.00 in Calm     79 % 0.00 in 0 W/m2
20:40 63.9 °F 57.6 °F 30.00 in Calm     80 % 0.00 in 0 W/m2
20:45 63.7 °F 57.4 °F 29.99 in Calm     80 % 0.00 in 0 W/m2
20:50 63.3 °F 57.4 °F 29.99 in Calm     81 % 0.00 in 0 W/m2
20:55 63.0 °F 57.0 °F 29.99 in Calm     81 % 0.00 in 0 W/m2
21:00 62.8 °F 56.9 °F 29.99 in Calm   1.0 mph 81 % 0.00 in 0 W/m2
21:05 62.6 °F 56.7 °F 29.99 in Calm   1.0 mph 81 % 0.00 in 0 W/m2
21:10 62.4 °F 56.5 °F 29.99 in Calm   1.0 mph 81 % 0.00 in 0 W/m2
21:15 62.4 °F 56.5 °F 29.99 in Calm   4.0 mph 81 % 0.00 in 0 W/m2
21:20 62.4 °F 56.5 °F 29.99 in NW 1.0 mph 4.0 mph 81 % 0.00 in 0 W/m2
21:25 62.4 °F 56.5 °F 29.99 in Calm   2.0 mph 81 % 0.00 in 0 W/m2
21:31 62.4 °F 56.5 °F 29.99 in Calm     81 % 0.00 in 0 W/m2
21:36 62.2 °F 56.3 °F 29.99 in Calm     81 % 0.00 in 0 W/m2
21:41 62.2 °F 56.3 °F 29.99 in Calm     81 % 0.00 in 0 W/m2
21:46 62.2 °F 56.7 °F 29.99 in Calm     82 % 0.00 in 0 W/m2
21:51 62.2 °F 56.7 °F 29.99 in Calm     82 % 0.00 in 0 W/m2
21:56 62.1 °F 56.8 °F 30.00 in Calm     83 % 0.00 in 0 W/m2
22:01 61.9 °F 56.7 °F 30.00 in Calm     83 % 0.00 in 0 W/m2
22:06 61.9 °F 56.7 °F 30.00 in Calm     83 % 0.00 in 0 W/m2
22:11 61.5 °F 56.3 °F 30.00 in Calm     83 % 0.00 in 0 W/m2
22:16 61.5 °F 56.6 °F 30.00 in Calm     84 % 0.00 in 0 W/m2
22:21 61.3 °F 56.5 °F 30.00 in Calm     84 % 0.00 in 0 W/m2
22:26 61.2 °F 56.3 °F 30.00 in Calm     84 % 0.00 in 0 W/m2
22:31 61.2 °F 56.6 °F 30.00 in Calm     85 % 0.00 in 0 W/m2
22:36 61.0 °F 56.4 °F 30.00 in Calm     85 % 0.00 in 0 W/m2
22:41 61.0 °F 56.4 °F 30.00 in Calm     85 % 0.00 in 0 W/m2
22:46 60.8 °F 56.3 °F 30.00 in Calm     85 % 0.00 in 0 W/m2
22:51 60.6 °F 56.1 °F 30.00 in Calm     85 % 0.00 in 0 W/m2
22:56 60.6 °F 56.1 °F 30.00 in Calm     85 % 0.00 in 0 W/m2
23:01 60.4 °F 56.2 °F 30.00 in Calm     86 % 0.00 in 0 W/m2
23:06 60.4 °F 56.2 °F 30.00 in Calm     86 % 0.00 in 0 W/m2
23:11 60.4 °F 56.2 °F 30.00 in Calm     86 % 0.00 in 0 W/m2
23:16 60.3 °F 56.1 °F 30.00 in Calm     86 % 0.00 in 0 W/m2
23:21 60.3 °F 56.1 °F 30.00 in Calm     86 % 0.00 in 0 W/m2
23:26 60.1 °F 55.9 °F 30.00 in Calm     86 % 0.00 in 0 W/m2
23:31 60.1 °F 55.9 °F 30.00 in NW 1.0 mph 5.0 mph 86 % 0.00 in 0 W/m2
23:36 60.1 °F 55.9 °F 30.00 in NW 1.0 mph 5.0 mph 86 % 0.00 in 0 W/m2
23:41 60.1 °F 55.9 °F 30.00 in WNW 2.0 mph 9.0 mph 86 % 0.00 in 0 W/m2
23:46 60.1 °F 55.6 °F 30.00 in WNW 5.0 mph 9.0 mph 85 % 0.00 in 0 W/m2
23:49 60.1 °F 55.6 °F 30.00 in WNW 5.0 mph 9.0 mph 85 % 0.00 in 0 W/m2
23:54 60.3 °F 55.7 °F 30.00 in NW 4.0 mph 7.0 mph 85 % 0.00 in 0 W/m2
23:59 60.3 °F 55.7 °F 30.00 in NW 3.0 mph 6.0 mph 85 % 0.00 in 0 W/m2
Delerius-Weather
Compliments of Weather Underground - 2.25 mb

Data updates at regular intervals.